sensor_id;sensor_type;location;lat;lon;timestamp;P1;durP1;ratioP1;P2;durP2;ratioP2
56171;SDS011;42052;41.634;-0.946;2022-09-12T00:03:40;1.10;;;0.90;;
56171;SDS011;42052;41.634;-0.946;2022-09-12T00:06:26;1.20;;;1.00;;
56171;SDS011;42052;41.634;-0.946;2022-09-12T00:08:55;1.20;;;1.05;;
56171;SDS011;42052;41.634;-0.946;2022-09-12T00:11:23;1.88;;;0.88;;
56171;SDS011;42052;41.634;-0.946;2022-09-12T00:13:50;1.58;;;1.02;;
56171;SDS011;42052;41.634;-0.946;2022-09-12T00:16:20;1.42;;;1.17;;
56171;SDS011;42052;41.634;-0.946;2022-09-12T00:18:48;1.00;;;0.90;;
56171;SDS011;42052;41.634;-0.946;2022-09-12T00:21:15;1.17;;;0.80;;
56171;SDS011;42052;41.634;-0.946;2022-09-12T00:23:42;1.25;;;1.00;;
56171;SDS011;42052;41.634;-0.946;2022-09-12T00:26:09;1.17;;;0.95;;
56171;SDS011;42052;41.634;-0.946;2022-09-12T00:28:35;1.48;;;0.98;;
56171;SDS011;42052;41.634;-0.946;2022-09-12T00:31:05;1.77;;;0.88;;
56171;SDS011;42052;41.634;-0.946;2022-09-12T00:33:33;1.05;;;0.90;;
56171;SDS011;42052;41.634;-0.946;2022-09-12T00:36:02;2.05;;;0.98;;
56171;SDS011;42052;41.634;-0.946;2022-09-12T00:38:30;0.80;;;0.70;;
56171;SDS011;42052;41.634;-0.946;2022-09-12T00:40:56;1.35;;;0.90;;
56171;SDS011;42052;41.634;-0.946;2022-09-12T00:49:05;1.33;;;0.90;;
56171;SDS011;42052;41.634;-0.946;2022-09-12T00:52:02;1.80;;;1.10;;
56171;SDS011;42052;41.634;-0.946;2022-09-12T00:57:51;1.25;;;0.93;;
56171;SDS011;42052;41.634;-0.946;2022-09-12T01:00:22;1.40;;;1.00;;
56171;SDS011;42052;41.634;-0.946;2022-09-12T01:02:50;1.33;;;1.00;;
56171;SDS011;42052;41.634;-0.946;2022-09-12T01:05:51;1.50;;;0.95;;
56171;SDS011;42052;41.634;-0.946;2022-09-12T01:08:20;1.95;;;1.00;;
56171;SDS011;42052;41.634;-0.946;2022-09-12T01:10:48;1.13;;;0.90;;
56171;SDS011;42052;41.634;-0.946;2022-09-12T01:13:14;4.57;;;1.10;;
56171;SDS011;42052;41.634;-0.946;2022-09-12T01:15:40;1.08;;;0.85;;
56171;SDS011;42052;41.634;-0.946;2022-09-12T01:18:08;1.63;;;0.80;;
56171;SDS011;42052;41.634;-0.946;2022-09-12T01:32:47;0.80;;;0.80;;
56171;SDS011;42052;41.634;-0.946;2022-09-12T01:35:36;1.58;;;0.90;;
56171;SDS011;42052;41.634;-0.946;2022-09-12T01:38:15;1.48;;;0.80;;
56171;SDS011;42052;41.634;-0.946;2022-09-12T01:44:01;1.00;;;0.90;;
56171;SDS011;42052;41.634;-0.946;2022-09-12T01:49:13;0.90;;;0.70;;
56171;SDS011;42052;41.634;-0.946;2022-09-12T01:54:37;1.15;;;0.70;;
56171;SDS011;42052;41.634;-0.946;2022-09-12T01:57:19;0.93;;;0.90;;
56171;SDS011;42052;41.634;-0.946;2022-09-12T01:59:50;1.60;;;0.80;;
56171;SDS011;42052;41.634;-0.946;2022-09-12T02:02:34;1.10;;;0.82;;
56171;SDS011;42052;41.634;-0.946;2022-09-12T02:05:05;1.17;;;0.90;;
56171;SDS011;42052;41.634;-0.946;2022-09-12T02:07:46;0.88;;;0.80;;
56171;SDS011;42052;41.634;-0.946;2022-09-12T02:10:18;1.02;;;0.80;;
56171;SDS011;42052;41.634;-0.946;2022-09-12T02:13:07;1.00;;;0.80;;
56171;SDS011;42052;41.634;-0.946;2022-09-12T02:15:41;1.45;;;0.98;;
56171;SDS011;42052;41.634;-0.946;2022-09-12T02:18:11;0.98;;;0.80;;
56171;SDS011;42052;41.634;-0.946;2022-09-12T02:20:40;0.82;;;0.70;;
56171;SDS011;42052;41.634;-0.946;2022-09-12T02:23:10;1.58;;;1.08;;
56171;SDS011;42052;41.634;-0.946;2022-09-12T02:25:41;0.95;;;0.88;;
56171;SDS011;42052;41.634;-0.946;2022-09-12T02:28:32;1.55;;;0.90;;
56171;SDS011;42052;41.634;-0.946;2022-09-12T02:36:14;1.75;;;0.90;;
56171;SDS011;42052;41.634;-0.946;2022-09-12T02:39:04;1.10;;;0.80;;
56171;SDS011;42052;41.634;-0.946;2022-09-12T02:41:30;1.08;;;0.70;;
56171;SDS011;42052;41.634;-0.946;2022-09-12T02:43:56;1.63;;;0.95;;
56171;SDS011;42052;41.634;-0.946;2022-09-12T02:46:24;2.13;;;0.90;;
56171;SDS011;42052;41.634;-0.946;2022-09-12T02:49:03;1.63;;;0.90;;
56171;SDS011;42052;41.634;-0.946;2022-09-12T02:51:29;1.65;;;0.90;;
56171;SDS011;42052;41.634;-0.946;2022-09-12T02:53:55;1.63;;;1.00;;
56171;SDS011;42052;41.634;-0.946;2022-09-12T02:56:23;1.02;;;0.80;;
56171;SDS011;42052;41.634;-0.946;2022-09-12T02:58:53;1.45;;;0.80;;
56171;SDS011;42052;41.634;-0.946;2022-09-12T03:04:05;0.88;;;0.70;;
56171;SDS011;42052;41.634;-0.946;2022-09-12T03:09:46;1.70;;;0.90;;
56171;SDS011;42052;41.634;-0.946;2022-09-12T03:18:18;1.05;;;0.65;;
56171;SDS011;42052;41.634;-0.946;2022-09-12T03:21:01;1.23;;;0.82;;
56171;SDS011;42052;41.634;-0.946;2022-09-12T03:26:25;1.42;;;0.70;;
56171;SDS011;42052;41.634;-0.946;2022-09-12T03:28:59;1.02;;;0.90;;
56171;SDS011;42052;41.634;-0.946;2022-09-12T03:31:27;1.02;;;0.75;;
56171;SDS011;42052;41.634;-0.946;2022-09-12T03:33:53;1.52;;;0.75;;
56171;SDS011;42052;41.634;-0.946;2022-09-12T03:36:23;1.50;;;0.70;;
56171;SDS011;42052;41.634;-0.946;2022-09-12T03:38:52;0.75;;;0.63;;
56171;SDS011;42052;41.634;-0.946;2022-09-12T03:41:18;1.85;;;0.80;;
56171;SDS011;42052;41.634;-0.946;2022-09-12T03:43:44;0.80;;;0.63;;
56171;SDS011;42052;41.634;-0.946;2022-09-12T03:46:11;1.15;;;0.80;;
56171;SDS011;42052;41.634;-0.946;2022-09-12T03:48:37;1.98;;;0.90;;
56171;SDS011;42052;41.634;-0.946;2022-09-12T03:51:05;0.95;;;0.73;;
56171;SDS011;42052;41.634;-0.946;2022-09-12T03:53:32;1.48;;;0.80;;
56171;SDS011;42052;41.634;-0.946;2022-09-12T03:55:59;1.38;;;0.85;;
56171;SDS011;42052;41.634;-0.946;2022-09-12T03:58:28;1.00;;;0.80;;
56171;SDS011;42052;41.634;-0.946;2022-09-12T04:00:55;1.45;;;0.80;;
56171;SDS011;42052;41.634;-0.946;2022-09-12T04:03:21;1.00;;;0.82;;
56171;SDS011;42052;41.634;-0.946;2022-09-12T04:05:46;1.38;;;1.08;;
56171;SDS011;42052;41.634;-0.946;2022-09-12T04:08:12;1.60;;;0.80;;
56171;SDS011;42052;41.634;-0.946;2022-09-12T04:10:39;0.73;;;0.70;;
56171;SDS011;42052;41.634;-0.946;2022-09-12T04:13:05;0.70;;;0.70;;
56171;SDS011;42052;41.634;-0.946;2022-09-12T04:15:31;1.15;;;0.82;;
56171;SDS011;42052;41.634;-0.946;2022-09-12T04:17:57;1.77;;;0.93;;
56171;SDS011;42052;41.634;-0.946;2022-09-12T04:20:22;0.77;;;0.60;;
56171;SDS011;42052;41.634;-0.946;2022-09-12T04:22:48;0.98;;;0.70;;
56171;SDS011;42052;41.634;-0.946;2022-09-12T04:25:14;1.10;;;0.80;;
56171;SDS011;42052;41.634;-0.946;2022-09-12T04:27:41;1.13;;;0.68;;
56171;SDS011;42052;41.634;-0.946;2022-09-12T04:30:07;1.17;;;0.70;;
56171;SDS011;42052;41.634;-0.946;2022-09-12T04:32:33;1.10;;;0.73;;
56171;SDS011;42052;41.634;-0.946;2022-09-12T04:34:59;1.08;;;0.82;;
56171;SDS011;42052;41.634;-0.946;2022-09-12T04:37:26;2.45;;;1.00;;
56171;SDS011;42052;41.634;-0.946;2022-09-12T04:39:52;1.08;;;0.75;;
56171;SDS011;42052;41.634;-0.946;2022-09-12T04:42:22;2.08;;;0.77;;
56171;SDS011;42052;41.634;-0.946;2022-09-12T04:44:48;1.23;;;0.80;;
56171;SDS011;42052;41.634;-0.946;2022-09-12T04:47:13;0.70;;;0.70;;
56171;SDS011;42052;41.634;-0.946;2022-09-12T04:49:40;0.88;;;0.70;;
56171;SDS011;42052;41.634;-0.946;2022-09-12T04:52:06;0.70;;;0.70;;
56171;SDS011;42052;41.634;-0.946;2022-09-12T04:54:32;1.55;;;0.80;;
56171;SDS011;42052;41.634;-0.946;2022-09-12T04:56:58;1.10;;;0.77;;
56171;SDS011;42052;41.634;-0.946;2022-09-12T04:59:24;1.45;;;1.00;;
56171;SDS011;42052;41.634;-0.946;2022-09-12T05:01:50;1.48;;;0.75;;
56171;SDS011;42052;41.634;-0.946;2022-09-12T05:04:16;1.05;;;0.75;;
56171;SDS011;42052;41.634;-0.946;2022-09-12T05:06:42;1.17;;;0.77;;
56171;SDS011;42052;41.634;-0.946;2022-09-12T05:09:11;0.93;;;0.70;;
56171;SDS011;42052;41.634;-0.946;2022-09-12T05:11:39;1.67;;;0.85;;
56171;SDS011;42052;41.634;-0.946;2022-09-12T05:14:07;3.47;;;1.20;;
56171;SDS011;42052;41.634;-0.946;2022-09-12T05:16:33;23.65;;;3.38;;
56171;SDS011;42052;41.634;-0.946;2022-09-12T05:18:59;36.78;;;6.53;;
56171;SDS011;42052;41.634;-0.946;2022-09-12T05:21:25;91.32;;;13.25;;
56171;SDS011;42052;41.634;-0.946;2022-09-12T05:23:52;42.40;;;7.53;;
56171;SDS011;42052;41.634;-0.946;2022-09-12T05:26:19;53.22;;;9.73;;
56171;SDS011;42052;41.634;-0.946;2022-09-12T05:28:47;48.63;;;10.02;;
56171;SDS011;42052;41.634;-0.946;2022-09-12T05:31:21;54.28;;;10.00;;
56171;SDS011;42052;41.634;-0.946;2022-09-12T05:33:49;56.60;;;9.50;;
56171;SDS011;42052;41.634;-0.946;2022-09-12T05:36:17;49.53;;;9.60;;
56171;SDS011;42052;41.634;-0.946;2022-09-12T05:38:45;49.10;;;9.30;;
56171;SDS011;42052;41.634;-0.946;2022-09-12T05:41:18;51.05;;;10.10;;
56171;SDS011;42052;41.634;-0.946;2022-09-12T05:43:46;43.05;;;8.70;;
56171;SDS011;42052;41.634;-0.946;2022-09-12T05:46:17;49.47;;;9.27;;
56171;SDS011;42052;41.634;-0.946;2022-09-12T05:48:45;39.42;;;8.70;;
56171;SDS011;42052;41.634;-0.946;2022-09-12T05:51:13;42.10;;;9.38;;
56171;SDS011;42052;41.634;-0.946;2022-09-12T05:53:43;33.03;;;7.80;;
56171;SDS011;42052;41.634;-0.946;2022-09-12T05:56:12;31.20;;;8.02;;
56171;SDS011;42052;41.634;-0.946;2022-09-12T05:58:41;39.17;;;8.27;;
56171;SDS011;42052;41.634;-0.946;2022-09-12T06:01:09;40.55;;;8.70;;
56171;SDS011;42052;41.634;-0.946;2022-09-12T06:03:41;33.83;;;7.88;;
56171;SDS011;42052;41.634;-0.946;2022-09-12T06:06:16;29.10;;;7.05;;
56171;SDS011;42052;41.634;-0.946;2022-09-12T06:08:47;34.55;;;7.28;;
56171;SDS011;42052;41.634;-0.946;2022-09-12T06:11:20;32.05;;;7.18;;
56171;SDS011;42052;41.634;-0.946;2022-09-12T06:13:50;25.90;;;7.10;;
56171;SDS011;42052;41.634;-0.946;2022-09-12T06:16:20;31.95;;;7.30;;
56171;SDS011;42052;41.634;-0.946;2022-09-12T06:18:48;29.10;;;6.93;;
56171;SDS011;42052;41.634;-0.946;2022-09-12T06:21:16;30.83;;;7.38;;
56171;SDS011;42052;41.634;-0.946;2022-09-12T06:23:42;32.40;;;7.65;;
56171;SDS011;42052;41.634;-0.946;2022-09-12T06:26:10;28.55;;;6.82;;
56171;SDS011;42052;41.634;-0.946;2022-09-12T06:28:40;24.65;;;6.25;;
56171;SDS011;42052;41.634;-0.946;2022-09-12T06:31:07;25.60;;;6.35;;
56171;SDS011;42052;41.634;-0.946;2022-09-12T06:33:38;28.48;;;6.53;;
56171;SDS011;42052;41.634;-0.946;2022-09-12T06:36:07;22.10;;;6.25;;
56171;SDS011;42052;41.634;-0.946;2022-09-12T06:38:34;21.25;;;5.72;;
56171;SDS011;42052;41.634;-0.946;2022-09-12T06:41:03;25.50;;;6.45;;
56171;SDS011;42052;41.634;-0.946;2022-09-12T06:43:31;25.17;;;5.57;;
56171;SDS011;42052;41.634;-0.946;2022-09-12T06:45:57;22.42;;;5.82;;
56171;SDS011;42052;41.634;-0.946;2022-09-12T06:48:23;20.13;;;5.78;;
56171;SDS011;42052;41.634;-0.946;2022-09-12T06:51:05;23.30;;;5.90;;
56171;SDS011;42052;41.634;-0.946;2022-09-12T06:53:35;24.48;;;6.15;;
56171;SDS011;42052;41.634;-0.946;2022-09-12T06:56:02;18.88;;;5.47;;
56171;SDS011;42052;41.634;-0.946;2022-09-12T06:58:30;19.75;;;6.15;;
56171;SDS011;42052;41.634;-0.946;2022-09-12T07:01:04;22.27;;;5.57;;
56171;SDS011;42052;41.634;-0.946;2022-09-12T07:03:32;23.25;;;6.13;;
56171;SDS011;42052;41.634;-0.946;2022-09-12T07:06:02;22.35;;;5.57;;
56171;SDS011;42052;41.634;-0.946;2022-09-12T07:08:30;19.60;;;5.70;;
56171;SDS011;42052;41.634;-0.946;2022-09-12T07:11:07;19.17;;;5.88;;
56171;SDS011;42052;41.634;-0.946;2022-09-12T07:13:45;16.40;;;5.53;;
56171;SDS011;42052;41.634;-0.946;2022-09-12T07:16:13;18.08;;;5.25;;
56171;SDS011;42052;41.634;-0.946;2022-09-12T07:18:40;16.50;;;4.65;;
56171;SDS011;42052;41.634;-0.946;2022-09-12T07:21:06;15.70;;;4.85;;
56171;SDS011;42052;41.634;-0.946;2022-09-12T07:23:36;17.50;;;4.97;;
56171;SDS011;42052;41.634;-0.946;2022-09-12T07:26:04;17.67;;;5.05;;
56171;SDS011;42052;41.634;-0.946;2022-09-12T07:28:31;15.23;;;5.05;;
56171;SDS011;42052;41.634;-0.946;2022-09-12T07:31:03;18.60;;;5.15;;
56171;SDS011;42052;41.634;-0.946;2022-09-12T07:33:31;19.65;;;5.38;;
56171;SDS011;42052;41.634;-0.946;2022-09-12T07:36:00;13.27;;;4.53;;
56171;SDS011;42052;41.634;-0.946;2022-09-12T07:38:31;16.15;;;5.18;;
56171;SDS011;42052;41.634;-0.946;2022-09-12T07:40:57;13.35;;;4.40;;
56171;SDS011;42052;41.634;-0.946;2022-09-12T07:43:23;14.63;;;4.68;;
56171;SDS011;42052;41.634;-0.946;2022-09-12T07:45:53;15.68;;;5.03;;
56171;SDS011;42052;41.634;-0.946;2022-09-12T07:48:22;11.50;;;4.35;;
56171;SDS011;42052;41.634;-0.946;2022-09-12T07:50:58;13.40;;;4.57;;
56171;SDS011;42052;41.634;-0.946;2022-09-12T07:53:25;13.35;;;4.38;;
56171;SDS011;42052;41.634;-0.946;2022-09-12T07:55:55;15.90;;;4.68;;
56171;SDS011;42052;41.634;-0.946;2022-09-12T07:58:21;15.85;;;4.80;;
56171;SDS011;42052;41.634;-0.946;2022-09-12T08:00:48;15.70;;;4.40;;
56171;SDS011;42052;41.634;-0.946;2022-09-12T08:03:14;14.35;;;4.82;;
56171;SDS011;42052;41.634;-0.946;2022-09-12T08:05:40;13.57;;;4.45;;
56171;SDS011;42052;41.634;-0.946;2022-09-12T08:08:06;12.63;;;4.05;;
56171;SDS011;42052;41.634;-0.946;2022-09-12T08:10:32;10.88;;;3.83;;
56171;SDS011;42052;41.634;-0.946;2022-09-12T08:12:58;13.30;;;4.10;;
56171;SDS011;42052;41.634;-0.946;2022-09-12T08:15:24;14.93;;;4.70;;
56171;SDS011;42052;41.634;-0.946;2022-09-12T08:17:50;16.67;;;4.70;;
56171;SDS011;42052;41.634;-0.946;2022-09-12T08:20:15;13.45;;;4.07;;
56171;SDS011;42052;41.634;-0.946;2022-09-12T08:22:42;12.10;;;4.05;;
56171;SDS011;42052;41.634;-0.946;2022-09-12T08:25:08;11.10;;;4.15;;
56171;SDS011;42052;41.634;-0.946;2022-09-12T08:27:34;12.07;;;4.07;;
56171;SDS011;42052;41.634;-0.946;2022-09-12T08:30:00;9.35;;;3.90;;
56171;SDS011;42052;41.634;-0.946;2022-09-12T08:32:26;9.52;;;3.97;;
56171;SDS011;42052;41.634;-0.946;2022-09-12T08:34:52;12.63;;;3.78;;
56171;SDS011;42052;41.634;-0.946;2022-09-12T08:37:18;11.93;;;4.28;;
56171;SDS011;42052;41.634;-0.946;2022-09-12T08:39:44;11.38;;;4.03;;
56171;SDS011;42052;41.634;-0.946;2022-09-12T08:42:09;10.35;;;3.97;;
56171;SDS011;42052;41.634;-0.946;2022-09-12T08:47:30;13.30;;;4.00;;
56171;SDS011;42052;41.634;-0.946;2022-09-12T08:50:18;9.88;;;4.28;;
56171;SDS011;42052;41.634;-0.946;2022-09-12T08:55:37;11.30;;;3.85;;
56171;SDS011;42052;41.634;-0.946;2022-09-12T08:58:13;9.68;;;3.80;;
56171;SDS011;42052;41.634;-0.946;2022-09-12T09:00:54;9.75;;;3.45;;
56171;SDS011;42052;41.634;-0.946;2022-09-12T09:06:34;10.55;;;3.67;;
56171;SDS011;42052;41.634;-0.946;2022-09-12T09:12:19;10.00;;;3.60;;
56171;SDS011;42052;41.634;-0.946;2022-09-12T09:14:58;10.55;;;3.67;;
56171;SDS011;42052;41.634;-0.946;2022-09-12T09:20:04;10.52;;;3.92;;
56171;SDS011;42052;41.634;-0.946;2022-09-12T09:22:57;9.98;;;3.75;;
56171;SDS011;42052;41.634;-0.946;2022-09-12T09:30:51;8.88;;;3.47;;
56171;SDS011;42052;41.634;-0.946;2022-09-12T09:33:20;10.38;;;3.38;;
56171;SDS011;42052;41.634;-0.946;2022-09-12T09:35:50;8.57;;;3.40;;
56171;SDS011;42052;41.634;-0.946;2022-09-12T09:38:55;8.43;;;3.50;;
56171;SDS011;42052;41.634;-0.946;2022-09-12T09:44:09;7.90;;;3.28;;
56171;SDS011;42052;41.634;-0.946;2022-09-12T09:46:34;7.32;;;2.85;;
56171;SDS011;42052;41.634;-0.946;2022-09-12T09:49:00;8.55;;;3.20;;
56171;SDS011;42052;41.634;-0.946;2022-09-12T09:51:32;8.57;;;3.53;;
56171;SDS011;42052;41.634;-0.946;2022-09-12T09:54:01;8.73;;;3.10;;
56171;SDS011;42052;41.634;-0.946;2022-09-12T09:56:42;8.75;;;3.40;;
56171;SDS011;42052;41.634;-0.946;2022-09-12T09:59:14;6.90;;;3.22;;
56171;SDS011;42052;41.634;-0.946;2022-09-12T10:01:47;6.28;;;2.95;;
56171;SDS011;42052;41.634;-0.946;2022-09-12T10:04:17;8.23;;;3.15;;
56171;SDS011;42052;41.634;-0.946;2022-09-12T10:06:44;8.50;;;2.85;;
56171;SDS011;42052;41.634;-0.946;2022-09-12T10:11:39;8.82;;;3.00;;
56171;SDS011;42052;41.634;-0.946;2022-09-12T10:16:55;7.05;;;3.17;;
56171;SDS011;42052;41.634;-0.946;2022-09-12T10:19:43;7.90;;;3.40;;
56171;SDS011;42052;41.634;-0.946;2022-09-12T10:22:12;7.95;;;3.03;;
56171;SDS011;42052;41.634;-0.946;2022-09-12T10:24:48;7.75;;;3.28;;
56171;SDS011;42052;41.634;-0.946;2022-09-12T10:29:54;7.25;;;2.95;;
56171;SDS011;42052;41.634;-0.946;2022-09-12T10:32:41;7.10;;;3.03;;
56171;SDS011;42052;41.634;-0.946;2022-09-12T10:35:19;6.05;;;2.72;;
56171;SDS011;42052;41.634;-0.946;2022-09-12T10:37:51;6.68;;;2.80;;
56171;SDS011;42052;41.634;-0.946;2022-09-12T10:40:29;6.80;;;2.88;;
56171;SDS011;42052;41.634;-0.946;2022-09-12T10:43:02;6.63;;;2.55;;
56171;SDS011;42052;41.634;-0.946;2022-09-12T10:45:50;7.15;;;2.92;;
56171;SDS011;42052;41.634;-0.946;2022-09-12T10:48:27;5.63;;;2.60;;
56171;SDS011;42052;41.634;-0.946;2022-09-12T10:50:58;4.40;;;2.35;;
56171;SDS011;42052;41.634;-0.946;2022-09-12T10:53:25;6.63;;;2.70;;
56171;SDS011;42052;41.634;-0.946;2022-09-12T10:56:12;4.30;;;2.22;;
56171;SDS011;42052;41.634;-0.946;2022-09-12T11:04:13;6.50;;;2.53;;
56171;SDS011;42052;41.634;-0.946;2022-09-12T11:06:54;5.57;;;2.45;;
56171;SDS011;42052;41.634;-0.946;2022-09-12T11:26:33;6.75;;;2.67;;
56171;SDS011;42052;41.634;-0.946;2022-09-12T11:34:29;5.18;;;2.13;;
56171;SDS011;42052;41.634;-0.946;2022-09-12T11:39:48;4.38;;;2.30;;
56171;SDS011;42052;41.634;-0.946;2022-09-12T11:42:35;4.90;;;2.17;;
56171;SDS011;42052;41.634;-0.946;2022-09-12T11:48:14;4.82;;;2.00;;
56171;SDS011;42052;41.634;-0.946;2022-09-12T11:50:49;5.43;;;2.05;;
56171;SDS011;42052;41.634;-0.946;2022-09-12T11:53:18;5.72;;;2.30;;
56171;SDS011;42052;41.634;-0.946;2022-09-12T11:55:56;4.68;;;2.08;;
56171;SDS011;42052;41.634;-0.946;2022-09-12T11:58:29;5.25;;;2.10;;
56171;SDS011;42052;41.634;-0.946;2022-09-12T12:00:56;5.50;;;2.08;;
56171;SDS011;42052;41.634;-0.946;2022-09-12T12:03:40;4.78;;;2.05;;
56171;SDS011;42052;41.634;-0.946;2022-09-12T12:08:37;4.97;;;2.30;;
56171;SDS011;42052;41.634;-0.946;2022-09-12T12:11:06;5.53;;;2.22;;
56171;SDS011;42052;41.634;-0.946;2022-09-12T12:13:40;5.15;;;2.05;;
56171;SDS011;42052;41.634;-0.946;2022-09-12T12:16:28;4.22;;;1.95;;
56171;SDS011;42052;41.634;-0.946;2022-09-12T12:19:02;4.32;;;1.95;;
56171;SDS011;42052;41.634;-0.946;2022-09-12T12:21:44;2.58;;;1.67;;
56171;SDS011;42052;41.634;-0.946;2022-09-12T12:26:52;2.93;;;1.80;;
56171;SDS011;42052;41.634;-0.946;2022-09-12T12:29:42;4.43;;;1.90;;
56171;SDS011;42052;41.634;-0.946;2022-09-12T12:34:44;6.80;;;2.10;;
56171;SDS011;42052;41.634;-0.946;2022-09-12T12:45:02;5.38;;;2.10;;
56171;SDS011;42052;41.634;-0.946;2022-09-12T12:47:43;5.65;;;2.00;;
56171;SDS011;42052;41.634;-0.946;2022-09-12T12:50:19;3.40;;;1.98;;
56171;SDS011;42052;41.634;-0.946;2022-09-12T12:52:57;3.92;;;2.03;;
56171;SDS011;42052;41.634;-0.946;2022-09-12T12:55:30;3.97;;;2.22;;
56171;SDS011;42052;41.634;-0.946;2022-09-12T12:58:03;4.20;;;1.95;;
56171;SDS011;42052;41.634;-0.946;2022-09-12T13:00:35;4.40;;;2.33;;
56171;SDS011;42052;41.634;-0.946;2022-09-12T13:06:04;5.55;;;1.80;;
56171;SDS011;42052;41.634;-0.946;2022-09-12T13:08:33;4.28;;;2.10;;
56171;SDS011;42052;41.634;-0.946;2022-09-12T13:13:47;5.85;;;2.10;;
56171;SDS011;42052;41.634;-0.946;2022-09-12T13:16:30;6.38;;;1.80;;
56171;SDS011;42052;41.634;-0.946;2022-09-12T13:19:19;4.90;;;2.08;;
56171;SDS011;42052;41.634;-0.946;2022-09-12T13:22:09;4.22;;;2.00;;
56171;SDS011;42052;41.634;-0.946;2022-09-12T13:24:42;4.07;;;2.00;;
56171;SDS011;42052;41.634;-0.946;2022-09-12T13:27:18;3.85;;;1.80;;
56171;SDS011;42052;41.634;-0.946;2022-09-12T13:29:48;3.38;;;1.77;;
56171;SDS011;42052;41.634;-0.946;2022-09-12T13:32:29;6.07;;;1.77;;
56171;SDS011;42052;41.634;-0.946;2022-09-12T13:35:04;4.10;;;1.80;;
56171;SDS011;42052;41.634;-0.946;2022-09-12T13:44:08;3.75;;;1.75;;
56171;SDS011;42052;41.634;-0.946;2022-09-12T13:46:37;3.22;;;1.52;;
56171;SDS011;42052;41.634;-0.946;2022-09-12T13:49:16;5.38;;;1.73;;
56171;SDS011;42052;41.634;-0.946;2022-09-12T13:51:57;3.85;;;1.60;;
56171;SDS011;42052;41.634;-0.946;2022-09-12T13:54:28;5.13;;;1.70;;
56171;SDS011;42052;41.634;-0.946;2022-09-12T13:56:56;4.93;;;1.90;;
56171;SDS011;42052;41.634;-0.946;2022-09-12T13:59:23;3.50;;;1.55;;
56171;SDS011;42052;41.634;-0.946;2022-09-12T14:01:50;4.20;;;1.55;;
56171;SDS011;42052;41.634;-0.946;2022-09-12T14:04:23;4.25;;;1.73;;
56171;SDS011;42052;41.634;-0.946;2022-09-12T14:07:25;3.42;;;1.73;;
56171;SDS011;42052;41.634;-0.946;2022-09-12T14:09:55;5.80;;;1.75;;
56171;SDS011;42052;41.634;-0.946;2022-09-12T14:12:27;4.25;;;1.50;;
56171;SDS011;42052;41.634;-0.946;2022-09-12T14:14:58;4.18;;;1.50;;
56171;SDS011;42052;41.634;-0.946;2022-09-12T14:17:26;8.35;;;1.98;;
56171;SDS011;42052;41.634;-0.946;2022-09-12T14:19:59;4.97;;;1.92;;
56171;SDS011;42052;41.634;-0.946;2022-09-12T14:22:40;5.85;;;2.08;;
56171;SDS011;42052;41.634;-0.946;2022-09-12T14:25:09;4.20;;;1.50;;
56171;SDS011;42052;41.634;-0.946;2022-09-12T14:27:44;6.57;;;1.75;;
56171;SDS011;42052;41.634;-0.946;2022-09-12T14:32:43;5.25;;;1.58;;
56171;SDS011;42052;41.634;-0.946;2022-09-12T14:35:42;3.07;;;1.60;;
56171;SDS011;42052;41.634;-0.946;2022-09-12T14:40:42;4.57;;;1.75;;
56171;SDS011;42052;41.634;-0.946;2022-09-12T14:43:45;3.75;;;1.33;;
56171;SDS011;42052;41.634;-0.946;2022-09-12T14:48:56;2.53;;;1.60;;
56171;SDS011;42052;41.634;-0.946;2022-09-12T14:51:31;4.45;;;1.50;;
56171;SDS011;42052;41.634;-0.946;2022-09-12T14:53:59;5.32;;;1.60;;
56171;SDS011;42052;41.634;-0.946;2022-09-12T14:56:42;3.05;;;1.50;;
56171;SDS011;42052;41.634;-0.946;2022-09-12T15:04:42;2.40;;;1.50;;
56171;SDS011;42052;41.634;-0.946;2022-09-12T15:10:00;2.40;;;1.23;;
56171;SDS011;42052;41.634;-0.946;2022-09-12T15:12:28;3.72;;;1.60;;
56171;SDS011;42052;41.634;-0.946;2022-09-12T15:14:57;2.78;;;1.50;;
56171;SDS011;42052;41.634;-0.946;2022-09-12T15:17:28;4.75;;;1.70;;
56171;SDS011;42052;41.634;-0.946;2022-09-12T15:19:53;3.28;;;1.60;;
56171;SDS011;42052;41.634;-0.946;2022-09-12T15:22:20;4.07;;;1.42;;
56171;SDS011;42052;41.634;-0.946;2022-09-12T15:24:48;4.50;;;1.40;;
56171;SDS011;42052;41.634;-0.946;2022-09-12T15:27:14;3.38;;;1.45;;
56171;SDS011;42052;41.634;-0.946;2022-09-12T15:29:40;3.10;;;1.20;;
56171;SDS011;42052;41.634;-0.946;2022-09-12T15:32:08;2.35;;;1.40;;
56171;SDS011;42052;41.634;-0.946;2022-09-12T15:34:40;3.47;;;1.42;;
56171;SDS011;42052;41.634;-0.946;2022-09-12T15:37:10;3.50;;;1.30;;
56171;SDS011;42052;41.634;-0.946;2022-09-12T15:39:38;4.75;;;1.50;;
56171;SDS011;42052;41.634;-0.946;2022-09-12T15:42:04;3.33;;;1.50;;
56171;SDS011;42052;41.634;-0.946;2022-09-12T15:44:30;2.25;;;1.25;;
56171;SDS011;42052;41.634;-0.946;2022-09-12T15:46:56;3.30;;;1.35;;
56171;SDS011;42052;41.634;-0.946;2022-09-12T15:49:21;3.03;;;1.42;;
56171;SDS011;42052;41.634;-0.946;2022-09-12T15:51:47;1.98;;;1.25;;
56171;SDS011;42052;41.634;-0.946;2022-09-12T15:54:13;3.20;;;1.40;;
56171;SDS011;42052;41.634;-0.946;2022-09-12T15:56:40;3.25;;;1.40;;
56171;SDS011;42052;41.634;-0.946;2022-09-12T15:59:08;2.95;;;1.38;;
56171;SDS011;42052;41.634;-0.946;2022-09-12T16:01:33;2.28;;;1.48;;
56171;SDS011;42052;41.634;-0.946;2022-09-12T16:04:00;2.72;;;1.40;;
56171;SDS011;42052;41.634;-0.946;2022-09-12T16:06:27;2.55;;;1.27;;
56171;SDS011;42052;41.634;-0.946;2022-09-12T16:08:55;6.43;;;1.52;;
56171;SDS011;42052;41.634;-0.946;2022-09-12T16:11:24;3.35;;;1.45;;
56171;SDS011;42052;41.634;-0.946;2022-09-12T16:13:51;2.92;;;1.40;;
56171;SDS011;42052;41.634;-0.946;2022-09-12T16:16:18;6.13;;;1.33;;
56171;SDS011;42052;41.634;-0.946;2022-09-12T16:18:44;3.10;;;1.20;;
56171;SDS011;42052;41.634;-0.946;2022-09-12T16:21:09;3.85;;;1.30;;
56171;SDS011;42052;41.634;-0.946;2022-09-12T16:23:35;3.38;;;1.25;;
56171;SDS011;42052;41.634;-0.946;2022-09-12T16:26:04;2.83;;;1.40;;
56171;SDS011;42052;41.634;-0.946;2022-09-12T16:28:31;3.10;;;1.20;;
56171;SDS011;42052;41.634;-0.946;2022-09-12T16:31:01;4.47;;;1.40;;
56171;SDS011;42052;41.634;-0.946;2022-09-12T16:33:28;2.95;;;1.27;;
56171;SDS011;42052;41.634;-0.946;2022-09-12T16:36:02;4.10;;;1.15;;
56171;SDS011;42052;41.634;-0.946;2022-09-12T16:38:30;2.15;;;1.20;;
56171;SDS011;42052;41.634;-0.946;2022-09-12T16:41:01;2.35;;;1.20;;
56171;SDS011;42052;41.634;-0.946;2022-09-12T16:43:28;8.80;;;1.40;;
56171;SDS011;42052;41.634;-0.946;2022-09-12T16:46:02;1.88;;;1.13;;
56171;SDS011;42052;41.634;-0.946;2022-09-12T16:48:30;2.50;;;1.30;;
56171;SDS011;42052;41.634;-0.946;2022-09-12T16:50:57;2.05;;;1.20;;
56171;SDS011;42052;41.634;-0.946;2022-09-12T16:53:28;3.05;;;1.08;;
56171;SDS011;42052;41.634;-0.946;2022-09-12T16:55:55;1.98;;;1.20;;
56171;SDS011;42052;41.634;-0.946;2022-09-12T16:58:21;2.15;;;1.40;;
56171;SDS011;42052;41.634;-0.946;2022-09-12T17:00:47;1.15;;;0.80;;
56171;SDS011;42052;41.634;-0.946;2022-09-12T17:03:13;2.33;;;0.95;;
56171;SDS011;42052;41.634;-0.946;2022-09-12T17:05:41;2.47;;;1.23;;
56171;SDS011;42052;41.634;-0.946;2022-09-12T17:08:07;2.30;;;1.02;;
56171;SDS011;42052;41.634;-0.946;2022-09-12T17:10:33;2.28;;;1.08;;
56171;SDS011;42052;41.634;-0.946;2022-09-12T17:13:00;1.50;;;1.20;;
56171;SDS011;42052;41.634;-0.946;2022-09-12T17:15:26;2.72;;;1.20;;
56171;SDS011;42052;41.634;-0.946;2022-09-12T17:17:52;2.17;;;1.23;;
56171;SDS011;42052;41.634;-0.946;2022-09-12T17:20:18;1.45;;;0.90;;
56171;SDS011;42052;41.634;-0.946;2022-09-12T17:22:43;2.10;;;1.10;;
56171;SDS011;42052;41.634;-0.946;2022-09-12T17:25:09;1.73;;;0.85;;
56171;SDS011;42052;41.634;-0.946;2022-09-12T17:27:35;1.50;;;0.80;;
56171;SDS011;42052;41.634;-0.946;2022-09-12T17:30:01;0.98;;;0.80;;
56171;SDS011;42052;41.634;-0.946;2022-09-12T17:32:28;1.95;;;1.10;;